Time;durP1;ratioP1;P1;durP2;ratioP2;P2;SDS_P1;SDS_P2;PMS_P1;PMS_P2;Temp;Humidity;BMP_temperature;BMP_pressure;BME280_temperature;BME280_humidity;BME280_pressure;Samples;Min_cycle;Max_cycle;Signal;HPM_P1;HPM_P2
2020/12/24 00:00:07;;;;;;;14.83;11.70;;;8.80;99.90;;;;;;5098181;28;20549;-76
2020/12/24 00:02:33;;;;;;;12.33;11.40;;;8.80;99.90;;;;;;5093759;28;20958;-77
2020/12/24 00:05:00;;;;;;;12.37;11.27;;;8.90;99.90;;;;;;5091488;28;20462;-78
2020/12/24 00:07:26;;;;;;;16.33;11.97;;;8.90;99.90;;;;;;5091707;28;20487;-78
2020/12/24 00:09:53;;;;;;;12.70;11.90;;;8.90;99.90;;;;;;5096997;28;20458;-76
2020/12/24 00:12:20;;;;;;;12.37;11.27;;;8.80;99.90;;;;;;5094140;28;20461;-76
2020/12/24 00:14:47;;;;;;;13.17;11.97;;;8.80;99.90;;;;;;5095660;28;20951;-75
2020/12/24 00:17:14;;;;;;;12.57;11.33;;;8.80;99.90;;;;;;5092458;28;20901;-76
2020/12/24 00:19:40;;;;;;;14.43;11.30;;;8.80;99.90;;;;;;5090746;28;20479;-78
2020/12/24 00:22:07;;;;;;;13.23;11.67;;;8.80;99.90;;;;;;5089057;28;20457;-76
2020/12/24 00:24:33;;;;;;;15.57;11.90;;;8.80;99.90;;;;;;5094694;28;20453;-76
2020/12/24 00:27:00;;;;;;;17.07;11.60;;;8.80;99.90;;;;;;5093015;28;20458;-80
2020/12/24 00:29:26;;;;;;;14.37;12.60;;;8.80;99.90;;;;;;5096063;28;20549;-77
2020/12/24 00:31:53;;;;;;;20.57;11.93;;;8.80;99.90;;;;;;5090283;28;20458;-76
2020/12/24 00:34:20;;;;;;;12.50;11.67;;;8.90;99.90;;;;;;5089610;28;21360;-74
2020/12/24 00:36:46;;;;;;;12.63;11.87;;;9.00;99.90;;;;;;5089805;28;20545;-75
2020/12/24 00:39:13;;;;;;;13.30;11.90;;;9.00;99.90;;;;;;5090509;28;20458;-75
2020/12/24 00:41:39;;;;;;;23.93;11.97;;;9.10;99.90;;;;;;5094949;28;20965;-76
2020/12/24 00:44:05;;;;;;;16.03;12.40;;;9.10;99.90;;;;;;5084878;28;20838;-76
2020/12/24 00:46:32;;;;;;;14.30;11.60;;;9.10;99.90;;;;;;5083347;28;20460;-76
2020/12/24 00:48:59;;;;;;;13.63;11.10;;;9.10;99.90;;;;;;5085471;28;20476;-76
2020/12/24 00:51:26;;;;;;;20.17;11.97;;;9.20;99.90;;;;;;5086544;28;20470;-76
2020/12/24 00:53:53;;;;;;;12.93;11.10;;;9.20;99.90;;;;;;5082317;28;20519;-76
2020/12/24 00:56:19;;;;;;;13.27;12.13;;;9.20;99.90;;;;;;5082157;28;20480;-76
2020/12/24 00:58:46;;;;;;;12.33;11.00;;;9.20;99.90;;;;;;5082910;28;20478;-76
2020/12/24 01:01:13;;;;;;;15.03;11.03;;;9.20;99.90;;;;;;5084530;28;20495;-76
2020/12/24 01:03:39;;;;;;;12.43;11.17;;;9.20;99.90;;;;;;5080790;28;20455;-75
2020/12/24 01:06:06;;;;;;;12.07;10.93;;;9.20;99.90;;;;;;5078211;28;20461;-76
2020/12/24 01:08:33;;;;;;;17.03;13.07;;;9.20;99.90;;;;;;5080167;28;20466;-76
2020/12/24 01:11:00;;;;;;;24.17;12.10;;;9.10;99.90;;;;;;5083014;28;20465;-76
2020/12/24 01:13:26;;;;;;;12.30;11.37;;;9.10;99.90;;;;;;5080121;28;20469;-75
2020/12/24 01:15:53;;;;;;;12.43;11.40;;;9.00;99.90;;;;;;5084945;28;20465;-76
2020/12/24 01:18:20;;;;;;;13.43;12.43;;;9.00;99.90;;;;;;5082017;28;20485;-76
2020/12/24 01:20:46;;;;;;;13.33;12.00;;;8.90;99.90;;;;;;5079599;28;20512;-75
2020/12/24 01:23:13;;;;;;;19.47;11.73;;;8.90;99.90;;;;;;5080850;28;20460;-76
2020/12/24 01:25:40;;;;;;;12.80;11.60;;;9.00;99.90;;;;;;5085219;28;21231;-76
2020/12/24 01:28:07;;;;;;;14.50;11.80;;;9.10;99.90;;;;;;5083792;28;20465;-76
2020/12/24 01:30:33;;;;;;;10.93;10.23;;;9.00;99.90;;;;;;5079502;28;20450;-76
2020/12/24 01:32:59;;;;;;;14.40;11.70;;;9.10;99.90;;;;;;5077636;28;20681;-75
2020/12/24 01:35:25;;;;;;;12.40;11.40;;;9.10;99.90;;;;;;5082079;28;20489;-76
2020/12/24 01:37:52;;;;;;;13.60;11.67;;;9.10;99.90;;;;;;5083519;28;20486;-76
2020/12/24 01:40:19;;;;;;;13.90;11.60;;;9.20;99.90;;;;;;5083412;28;20978;-76
2020/12/24 01:42:48;;;;;;;11.40;10.50;;;9.20;99.90;;;;;;5081691;28;20461;-76
2020/12/24 01:45:15;;;;;;;12.40;11.00;;;9.20;99.90;;;;;;5063995;28;20462;-76
2020/12/24 01:47:42;;;;;;;11.67;10.87;;;9.20;99.90;;;;;;5060882;28;20930;-76
2020/12/24 01:50:09;;;;;;;12.90;10.57;;;9.10;99.90;;;;;;5073744;28;20551;-76
2020/12/24 01:52:37;;;;;;;12.43;10.57;;;9.10;99.90;;;;;;5071836;28;20937;-76
2020/12/24 01:55:06;;;;;;;16.20;11.87;;;9.10;99.90;;;;;;5064968;28;20818;-76
2020/12/24 01:57:34;;;;;;;10.67;10.07;;;9.10;99.90;;;;;;5062545;28;20492;-75
2020/12/24 02:00:04;;;;;;;12.30;10.93;;;9.10;99.90;;;;;;5069744;28;20473;-76
2020/12/24 02:02:31;;;;;;;13.17;11.13;;;9.20;99.90;;;;;;5066541;28;20519;-75
2020/12/24 02:04:58;;;;;;;13.13;12.03;;;9.20;99.90;;;;;;5064646;28;20537;-75
2020/12/24 02:07:24;;;;;;;12.40;11.30;;;9.20;99.90;;;;;;5072597;28;20460;-76
2020/12/24 02:09:51;;;;;;;12.40;11.10;;;9.20;99.90;;;;;;5063656;28;20490;-75
2020/12/24 02:12:19;;;;;;;12.10;11.00;;;9.20;99.90;;;;;;5064646;28;20457;-76
2020/12/24 02:14:46;;;;;;;12.07;11.33;;;9.20;99.90;;;;;;5061566;28;20483;-75
2020/12/24 02:17:12;;;;;;;22.93;12.33;;;9.20;99.90;;;;;;5066125;28;20590;-75
2020/12/24 02:19:40;;;;;;;11.93;11.10;;;9.10;99.90;;;;;;5070676;28;20569;-76
2020/12/24 02:22:08;;;;;;;12.50;11.57;;;9.10;99.90;;;;;;5059018;28;20869;-75
2020/12/24 02:24:36;;;;;;;15.53;11.83;;;9.10;99.90;;;;;;5060591;28;20508;-76
2020/12/24 02:27:03;;;;;;;12.30;11.40;;;9.10;99.90;;;;;;5062075;28;20458;-75
2020/12/24 02:29:29;;;;;;;12.00;10.87;;;8.90;99.90;;;;;;5065751;28;20457;-76
2020/12/24 02:31:56;;;;;;;12.77;10.90;;;8.80;99.90;;;;;;5065645;28;20992;-76
2020/12/24 02:34:23;;;;;;;12.83;11.83;;;8.70;99.90;;;;;;5070228;28;20720;-76
2020/12/24 02:36:50;;;;;;;12.53;11.40;;;8.60;99.90;;;;;;5067078;28;20484;-76
2020/12/24 02:39:18;;;;;;;13.13;11.93;;;8.50;99.90;;;;;;5059044;28;20456;-77
2020/12/24 02:41:45;;;;;;;12.77;11.47;;;8.40;99.90;;;;;;5059243;28;20458;-76
2020/12/24 02:44:11;;;;;;;13.90;12.53;;;8.40;99.90;;;;;;5086563;28;20485;-77
2020/12/24 02:46:39;;;;;;;12.40;11.40;;;8.40;99.90;;;;;;5089853;28;20484;-77
2020/12/24 02:49:06;;;;;;;12.10;11.10;;;8.40;99.90;;;;;;5087407;28;20544;-76
2020/12/24 02:51:32;;;;;;;12.50;11.40;;;8.40;99.90;;;;;;5090171;28;20457;-76
2020/12/24 02:53:58;;;;;;;11.93;11.10;;;8.50;99.90;;;;;;5091957;28;20466;-76
2020/12/24 02:56:26;;;;;;;19.03;11.60;;;8.50;99.90;;;;;;5088487;28;20490;-76
2020/12/24 02:58:52;;;;;;;12.53;11.60;;;8.50;99.90;;;;;;5087396;28;20460;-76
2020/12/24 03:01:18;;;;;;;18.07;11.70;;;8.40;99.90;;;;;;5091668;28;20542;-75
2020/12/24 03:03:45;;;;;;;12.90;11.60;;;8.40;99.90;;;;;;5092013;28;20450;-77
2020/12/24 03:06:11;;;;;;;12.67;11.77;;;8.40;99.90;;;;;;5092155;28;20446;-77
2020/12/24 03:08:38;;;;;;;11.80;11.20;;;8.40;99.90;;;;;;5089430;28;20469;-77
2020/12/24 03:11:04;;;;;;;12.60;11.80;;;8.40;99.90;;;;;;5090056;28;20471;-76
2020/12/24 03:13:31;;;;;;;11.80;10.83;;;8.40;99.90;;;;;;5087656;28;20450;-78
2020/12/24 03:15:58;;;;;;;12.23;11.23;;;8.40;99.90;;;;;;5092138;28;20459;-76
2020/12/24 03:18:24;;;;;;;13.73;12.37;;;8.40;99.90;;;;;;5090179;28;20542;-78
2020/12/24 03:20:51;;;;;;;13.20;11.90;;;8.40;99.90;;;;;;5089204;28;20752;-78
2020/12/24 03:23:17;;;;;;;12.97;11.80;;;8.50;99.90;;;;;;5087672;28;20468;-77
2020/12/24 03:25:44;;;;;;;13.10;12.10;;;8.40;99.90;;;;;;5089154;28;20450;-76
2020/12/24 03:28:10;;;;;;;13.90;12.50;;;8.50;99.90;;;;;;5092492;28;20478;-76
2020/12/24 03:30:37;;;;;;;14.07;12.70;;;8.50;99.90;;;;;;5090482;28;20461;-76
2020/12/24 03:33:03;;;;;;;12.70;11.70;;;8.50;99.90;;;;;;5093011;28;20459;-77
2020/12/24 03:35:30;;;;;;;13.80;12.40;;;8.50;99.90;;;;;;5088203;28;20495;-79
2020/12/24 03:37:56;;;;;;;12.37;11.43;;;8.60;99.90;;;;;;5095505;28;20481;-76
2020/12/24 03:40:23;;;;;;;12.40;11.23;;;8.60;99.90;;;;;;5093720;28;20457;-77
2020/12/24 03:42:50;;;;;;;15.47;11.70;;;8.60;99.90;;;;;;5096597;28;20552;-77
2020/12/24 03:45:16;;;;;;;14.57;11.33;;;8.70;99.90;;;;;;5094223;28;20478;-78
2020/12/24 03:47:44;;;;;;;11.57;10.50;;;8.60;99.90;;;;;;5084448;28;20555;-77
2020/12/24 03:50:10;;;;;;;12.27;11.27;;;8.60;99.90;;;;;;5095139;28;20457;-77
2020/12/24 03:52:38;;;;;;;13.53;12.33;;;8.50;99.90;;;;;;5092379;28;20813;-76
2020/12/24 03:55:05;;;;;;;13.83;12.40;;;8.50;99.90;;;;;;5092443;28;20526;-76
2020/12/24 03:57:32;;;;;;;13.80;12.40;;;8.50;99.90;;;;;;5094793;28;20965;-77
2020/12/24 03:59:58;;;;;;;24.43;12.57;;;8.40;99.90;;;;;;5091124;28;20466;-76
2020/12/24 04:02:24;;;;;;;13.07;12.07;;;8.40;99.90;;;;;;5093098;28;20462;-77
2020/12/24 04:04:52;;;;;;;14.67;12.13;;;8.30;99.90;;;;;;5092336;28;20824;-76
2020/12/24 04:07:19;;;;;;;19.43;12.50;;;8.30;99.90;;;;;;5093554;28;20795;-77
2020/12/24 04:09:46;;;;;;;15.93;13.23;;;8.30;99.90;;;;;;5090585;28;21060;-78
2020/12/24 04:12:12;;;;;;;12.87;11.63;;;8.30;99.90;;;;;;5095321;28;20816;-78
2020/12/24 04:14:38;;;;;;;12.33;11.33;;;8.30;99.90;;;;;;5091654;28;20484;-77
2020/12/24 04:17:05;;;;;;;15.43;12.10;;;8.30;99.90;;;;;;5095298;28;21017;-78
2020/12/24 04:19:32;;;;;;;13.90;12.50;;;8.30;99.90;;;;;;5093595;28;20575;-78
2020/12/24 04:21:59;;;;;;;18.40;14.77;;;8.40;99.90;;;;;;5091566;28;20523;-78
2020/12/24 04:24:25;;;;;;;13.70;12.30;;;8.40;99.90;;;;;;5091212;28;20486;-78
2020/12/24 04:26:55;;;;;;;18.27;12.40;;;8.40;99.90;;;;;;5095103;28;20468;-76
2020/12/24 04:29:22;;;;;;;13.17;12.10;;;8.40;99.90;;;;;;5093261;28;20461;-78
2020/12/24 04:31:48;;;;;;;12.40;11.53;;;8.40;99.90;;;;;;5094361;28;20949;-76
2020/12/24 04:34:15;;;;;;;13.90;12.40;;;8.50;99.90;;;;;;5092321;28;20449;-75
2020/12/24 04:36:41;;;;;;;15.00;12.77;;;8.50;99.90;;;;;;5093206;28;20489;-77
2020/12/24 04:39:08;;;;;;;14.27;11.90;;;8.50;99.90;;;;;;5093939;28;20468;-77
2020/12/24 04:41:35;;;;;;;22.23;12.60;;;8.40;99.90;;;;;;5090758;28;20956;-78
2020/12/24 04:44:02;;;;;;;17.63;14.20;;;8.40;99.90;;;;;;5096005;28;20492;-77
2020/12/24 04:46:29;;;;;;;18.20;16.80;;;8.40;99.90;;;;;;5092570;28;20460;-76
2020/12/24 04:48:57;;;;;;;23.00;20.80;;;8.20;99.90;;;;;;5092202;28;20513;-77
2020/12/24 04:51:24;;;;;;;23.40;21.60;;;8.10;99.90;;;;;;5093204;28;20514;-76
2020/12/24 04:53:51;;;;;;;22.77;21.17;;;8.00;99.90;;;;;;5094442;28;20462;-75
2020/12/24 04:56:19;;;;;;;22.80;20.97;;;8.00;99.90;;;;;;5091505;28;20466;-75
2020/12/24 04:58:45;;;;;;;23.40;21.07;;;7.90;99.90;;;;;;5092385;28;20466;-76
2020/12/24 05:01:15;;;;;;;22.97;21.17;;;7.90;99.90;;;;;;5090462;28;20465;-76
2020/12/24 05:03:42;;;;;;;23.20;21.30;;;7.80;99.90;;;;;;5092011;28;20955;-75
2020/12/24 05:06:14;;;;;;;27.37;21.17;;;7.80;99.90;;;;;;5087000;28;20470;-74
2020/12/24 05:08:40;;;;;;;21.57;19.53;;;7.80;99.90;;;;;;5085179;28;20450;-77
2020/12/24 05:11:08;;;;;;;21.87;20.10;;;7.80;99.90;;;;;;5091145;28;20543;-76
2020/12/24 05:13:36;;;;;;;21.50;20.00;;;7.80;99.90;;;;;;5093717;28;20595;-76
2020/12/24 05:16:15;;;;;;;22.40;19.97;;;7.70;99.90;;;;;;5090434;28;20457;-76
2020/12/24 05:18:42;;;;;;;20.53;18.87;;;7.70;99.90;;;;;;5090539;28;20467;-74
2020/12/24 05:21:08;;;;;;;21.00;19.17;;;7.60;99.90;;;;;;5092098;28;20455;-76
2020/12/24 05:23:34;;;;;;;20.80;19.17;;;7.50;99.90;;;;;;5090106;28;20980;-77
2020/12/24 05:26:17;;;;;;;20.70;19.00;;;7.50;99.90;;;;;;5092605;28;20472;-74
2020/12/24 05:28:44;;;;;;;20.43;18.90;;;7.40;99.90;;;;;;5092442;28;20454;-76
2020/12/24 05:31:11;;;;;;;20.50;18.97;;;7.30;99.90;;;;;;5090372;28;20460;-74
2020/12/24 05:33:37;;;;;;;20.40;18.80;;;7.30;99.90;;;;;;5094003;28;20932;-75
2020/12/24 05:36:18;;;;;;;20.40;19.00;;;7.20;99.90;;;;;;5089952;28;20478;-74
2020/12/24 05:38:45;;;;;;;19.90;18.53;;;7.10;99.90;;;;;;5082990;28;20494;-75
2020/12/24 05:41:32;;;;;;;19.43;18.10;;;7.10;99.90;;;;;;5089630;28;20457;-76
2020/12/24 05:44:01;;;;;;;18.47;17.27;;;7.20;99.90;;;;;;5088111;28;20485;-73
2020/12/24 05:46:30;;;;;;;19.03;17.40;;;7.20;99.90;;;;;;5088915;28;21150;-77
2020/12/24 05:48:57;;;;;;;18.10;16.93;;;7.20;99.90;;;;;;5088814;28;20507;-74
2020/12/24 05:51:23;;;;;;;18.13;16.80;;;7.30;99.90;;;;;;5090424;28;20458;-76
2020/12/24 05:53:50;;;;;;;18.93;17.40;;;7.30;99.90;;;;;;5092701;28;21056;-73
2020/12/24 05:56:23;;;;;;;19.03;17.50;;;7.40;99.90;;;;;;5089529;28;20462;-75
2020/12/24 05:58:51;;;;;;;17.40;16.40;;;7.40;99.90;;;;;;5089669;28;20463;-77
2020/12/24 06:01:20;;;;;;;17.80;16.70;;;7.50;99.90;;;;;;5092164;28;21028;-74
2020/12/24 06:04:03;;;;;;;18.20;16.87;;;7.50;99.90;;;;;;5089210;28;20463;-76
2020/12/24 06:06:45;;;;;;;19.40;17.10;;;7.50;99.90;;;;;;5091963;28;20517;-74
2020/12/24 06:09:16;;;;;;;18.53;16.90;;;7.50;99.90;;;;;;5093598;28;20956;-76
2020/12/24 06:11:48;;;;;;;17.40;16.30;;;7.60;99.90;;;;;;5092781;28;20523;-74
2020/12/24 06:14:30;;;;;;;16.77;15.77;;;7.50;99.90;;;;;;5090044;28;20455;-75
2020/12/24 06:17:05;;;;;;;16.83;15.53;;;7.50;99.90;;;;;;5088074;28;20847;-76
2020/12/24 06:19:39;;;;;;;17.07;15.87;;;7.50;99.90;;;;;;5091702;28;20458;-75
2020/12/24 06:22:06;;;;;;;18.97;15.23;;;7.60;99.90;;;;;;5089340;28;20459;-77
2020/12/24 06:24:34;;;;;;;16.60;15.40;;;7.50;99.90;;;;;;5092798;28;20465;-75
2020/12/24 06:27:04;;;;;;;15.43;14.60;;;7.50;99.90;;;;;;5092272;28;20454;-77
2020/12/24 06:29:34;;;;;;;16.13;15.03;;;7.50;99.90;;;;;;5092577;28;20460;-75
2020/12/24 06:32:01;;;;;;;16.37;14.90;;;7.50;99.90;;;;;;5089949;28;20528;-76
2020/12/24 06:34:30;;;;;;;15.70;14.50;;;7.60;99.90;;;;;;5090527;28;20941;-77
2020/12/24 06:36:57;;;;;;;14.63;13.57;;;7.70;99.90;;;;;;5089684;28;21189;-77
2020/12/24 06:39:40;;;;;;;15.33;14.37;;;7.70;99.90;;;;;;5089885;28;20951;-74
2020/12/24 06:42:07;;;;;;;14.93;13.93;;;7.60;99.90;;;;;;5090527;28;21024;-77
2020/12/24 06:44:47;;;;;;;14.67;13.67;;;7.70;99.90;;;;;;5087104;28;20475;-74
2020/12/24 06:47:16;;;;;;;15.40;14.00;;;7.70;99.90;;;;;;5090254;28;20468;-77
2020/12/24 06:49:43;;;;;;;17.23;16.10;;;7.60;99.90;;;;;;5090659;28;20527;-78
2020/12/24 06:52:09;;;;;;;16.33;14.63;;;7.70;99.90;;;;;;5088377;28;20823;-78
2020/12/24 06:54:38;;;;;;;15.90;14.80;;;7.70;99.90;;;;;;5085706;28;20667;-78
2020/12/24 06:57:24;;;;;;;15.90;15.00;;;7.60;99.90;;;;;;5089864;28;20480;-76
2020/12/24 07:00:17;;;;;;;15.13;14.33;;;7.60;99.90;;;;;;5085813;28;20939;-77
2020/12/24 07:02:45;;;;;;;18.47;15.33;;;7.60;99.90;;;;;;5089064;28;20502;-75
2020/12/24 07:05:43;;;;;;;15.53;14.57;;;7.70;99.90;;;;;;5090960;28;20474;-76
2020/12/24 07:08:11;;;;;;;21.20;14.80;;;7.70;99.90;;;;;;5087876;28;21094;-75
2020/12/24 07:10:45;;;;;;;15.13;14.00;;;7.70;99.90;;;;;;5089783;28;20461;-77
2020/12/24 07:13:26;;;;;;;15.07;13.73;;;7.70;99.90;;;;;;5095053;28;20859;-79
2020/12/24 07:15:52;;;;;;;14.13;12.93;;;7.70;99.90;;;;;;5091095;28;20458;-77
2020/12/24 07:18:21;;;;;;;14.77;13.57;;;7.70;99.90;;;;;;5093214;28;20722;-75
2020/12/24 07:20:50;;;;;;;16.73;15.40;;;7.70;99.90;;;;;;5089934;28;20460;-78
2020/12/24 07:23:27;;;;;;;16.63;15.07;;;7.50;99.90;;;;;;5091708;28;20870;-79
2020/12/24 07:25:54;;;;;;;17.07;15.93;;;7.60;99.90;;;;;;5088779;28;20470;-76
2020/12/24 07:28:20;;;;;;;20.33;18.03;;;7.60;99.90;;;;;;5088460;28;20474;-76
2020/12/24 07:30:59;;;;;;;15.87;14.80;;;7.60;99.90;;;;;;5092588;28;20460;-79
2020/12/24 07:33:27;;;;;;;14.57;13.70;;;7.60;99.90;;;;;;5090672;28;20632;-76
2020/12/24 07:35:54;;;;;;;15.17;14.17;;;7.60;99.90;;;;;;5088415;28;20560;-79
2020/12/24 07:38:21;;;;;;;14.63;13.73;;;7.60;99.90;;;;;;5095519;28;20832;-78
2020/12/24 07:40:47;;;;;;;16.73;14.97;;;7.70;99.90;;;;;;5096910;28;20503;-78
2020/12/24 07:43:14;;;;;;;15.67;14.67;;;7.70;99.90;;;;;;5089391;28;20477;-78
2020/12/24 07:45:43;;;;;;;16.10;14.73;;;7.60;99.90;;;;;;5092460;28;20454;-79
2020/12/24 07:48:16;;;;;;;15.80;14.80;;;7.60;99.90;;;;;;5090771;28;20501;-76
2020/12/24 07:50:45;;;;;;;15.17;14.07;;;7.50;99.90;;;;;;5091004;28;20989;-76
2020/12/24 07:53:16;;;;;;;15.73;14.27;;;7.50;99.90;;;;;;5091323;28;20459;-78
2020/12/24 07:55:42;;;;;;;19.17;13.90;;;7.50;99.90;;;;;;5091814;28;20518;-79
2020/12/24 07:58:10;;;;;;;15.23;13.70;;;7.60;99.90;;;;;;5092368;28;20499;-77
2020/12/24 08:00:41;;;;;;;14.33;13.43;;;7.60;99.90;;;;;;5090352;28;20526;-78
2020/12/24 08:03:08;;;;;;;15.80;14.00;;;7.80;99.90;;;;;;5092694;28;20483;-78
2020/12/24 08:05:35;;;;;;;14.33;13.43;;;7.80;99.90;;;;;;5094575;28;20519;-79
2020/12/24 08:08:02;;;;;;;14.53;13.20;;;7.80;99.90;;;;;;5095347;28;20461;-79
2020/12/24 08:10:29;;;;;;;15.33;14.20;;;7.80;99.90;;;;;;5095375;28;20470;-76
2020/12/24 08:13:02;;;;;;;14.33;13.40;;;7.80;99.90;;;;;;5095216;28;20457;-77
2020/12/24 08:15:33;;;;;;;13.27;12.57;;;7.80;99.90;;;;;;5090542;28;20468;-79
2020/12/24 08:18:02;;;;;;;16.33;14.80;;;7.90;99.90;;;;;;5090881;28;20487;-80
2020/12/24 08:20:34;;;;;;;14.27;13.07;;;7.90;99.90;;;;;;5095293;28;20479;-77
2020/12/24 08:23:07;;;;;;;15.10;13.40;;;8.00;99.90;;;;;;5095711;28;20461;-78
2020/12/24 08:25:35;;;;;;;14.07;13.03;;;8.00;99.90;;;;;;5093269;28;20457;-78
2020/12/24 08:28:03;;;;;;;14.93;13.80;;;8.00;99.90;;;;;;5084399;28;20826;-79
2020/12/24 08:30:29;;;;;;;14.93;14.03;;;8.00;99.90;;;;;;5090692;28;20458;-77
2020/12/24 08:32:58;;;;;;;16.97;15.57;;;8.00;99.90;;;;;;5094302;28;20539;-78
2020/12/24 08:35:29;;;;;;;18.57;15.63;;;8.00;99.90;;;;;;5088987;28;20468;-77
2020/12/24 08:38:09;;;;;;;18.90;17.13;;;8.00;99.90;;;;;;5092150;28;20813;-76
2020/12/24 08:40:36;;;;;;;17.67;16.57;;;8.00;99.90;;;;;;5090954;28;20510;-76
2020/12/24 08:43:06;;;;;;;21.40;20.10;;;7.80;99.90;;;;;;5092066;28;20457;-75
2020/12/24 08:45:32;;;;;;;20.80;19.60;;;7.20;99.90;;;;;;5086439;28;20975;-78
2020/12/24 08:47:58;;;;;;;21.53;20.23;;;6.70;99.90;;;;;;5091223;28;20458;-78
2020/12/24 08:50:30;;;;;;;21.63;20.23;;;6.30;99.90;;;;;;5091777;28;20492;-77
2020/12/24 08:52:57;;;;;;;20.80;19.50;;;6.10;99.90;;;;;;5094477;28;20450;-77
2020/12/24 08:55:28;;;;;;;21.27;19.90;;;5.90;99.90;;;;;;5090731;28;20465;-76
2020/12/24 08:57:55;;;;;;;21.90;20.50;;;5.90;99.90;;;;;;5087033;28;20492;-77
2020/12/24 09:00:24;;;;;;;23.30;21.60;;;5.80;99.90;;;;;;5088852;28;20499;-77
2020/12/24 09:02:51;;;;;;;21.30;20.00;;;5.80;99.90;;;;;;5092572;28;20533;-78
2020/12/24 09:05:23;;;;;;;21.40;20.10;;;5.70;99.90;;;;;;5090139;28;20458;-78
2020/12/24 09:07:50;;;;;;;24.03;22.27;;;5.80;99.90;;;;;;5092369;28;20461;-76
2020/12/24 09:10:20;;;;;;;22.87;21.37;;;5.80;99.90;;;;;;5088888;28;20458;-76
2020/12/24 09:12:54;;;;;;;24.50;22.70;;;5.70;99.90;;;;;;5088922;28;20815;-77
2020/12/24 09:15:25;;;;;;;25.37;23.37;;;5.60;99.90;;;;;;5090143;28;20931;-76
2020/12/24 09:17:54;;;;;;;26.90;24.57;;;5.50;99.90;;;;;;5092083;28;20858;-78
2020/12/24 09:20:25;;;;;;;24.20;22.53;;;5.60;99.90;;;;;;5095976;28;20507;-78
2020/12/24 09:22:53;;;;;;;25.10;23.20;;;5.50;99.90;;;;;;5091619;28;20462;-76
2020/12/24 09:25:33;;;;;;;25.33;23.20;;;5.50;99.90;;;;;;5092835;28;20465;-77
2020/12/24 09:28:01;;;;;;;27.40;25.30;;;5.40;99.90;;;;;;5091740;28;20458;-78
2020/12/24 09:30:28;;;;;;;24.90;22.83;;;5.30;99.90;;;;;;5095484;28;20514;-77
2020/12/24 09:32:55;;;;;;;25.20;23.33;;;5.30;99.90;;;;;;5088781;28;20856;-77
2020/12/24 09:35:27;;;;;;;21.00;19.60;;;5.20;99.90;;;;;;5092932;28;20535;-79
2020/12/24 09:37:55;;;;;;;24.43;22.73;;;5.20;99.90;;;;;;5096072;28;20485;-77
2020/12/24 09:40:22;;;;;;;24.00;22.30;;;5.20;99.90;;;;;;5089812;28;20560;-79
2020/12/24 09:42:49;;;;;;;24.87;23.07;;;5.20;99.90;;;;;;5093244;28;21033;-77
2020/12/24 09:45:16;;;;;;;23.83;21.77;;;5.30;99.90;;;;;;5096032;28;21591;-77
2020/12/24 09:47:44;;;;;;;25.33;23.33;;;5.20;99.90;;;;;;5097550;28;20454;-78
2020/12/24 09:50:14;;;;;;;25.43;23.60;;;5.30;99.90;;;;;;5095213;28;20465;-76
2020/12/24 09:52:41;;;;;;;24.63;22.83;;;5.30;99.90;;;;;;5095831;28;20466;-78
2020/12/24 09:55:07;;;;;;;24.30;22.10;;;5.40;99.90;;;;;;5094060;28;20457;-76
2020/12/24 09:57:35;;;;;;;26.23;24.13;;;5.40;99.90;;;;;;5093576;28;20983;-77
2020/12/24 10:00:04;;;;;;;25.00;22.80;;;5.50;99.90;;;;;;5090967;28;20866;-80
2020/12/24 10:02:31;;;;;;;25.53;23.33;;;5.50;99.90;;;;;;5096002;28;20462;-78
2020/12/24 10:04:58;;;;;;;25.40;23.30;;;5.50;99.90;;;;;;5095231;28;20450;-80
2020/12/24 10:07:25;;;;;;;24.17;22.53;;;5.50;99.90;;;;;;5090579;28;20449;-79
2020/12/24 10:09:54;;;;;;;24.60;22.53;;;5.50;99.90;;;;;;5094067;28;20549;-77
2020/12/24 10:12:20;;;;;;;24.70;22.90;;;5.50;99.90;;;;;;5096744;28;20473;-76
2020/12/24 10:14:47;;;;;;;25.23;22.70;;;5.50;99.90;;;;;;5096374;28;20457;-77
2020/12/24 10:17:14;;;;;;;24.77;22.80;;;5.50;99.90;;;;;;5098911;28;20493;-76
2020/12/24 10:19:43;;;;;;;22.90;21.43;;;5.50;99.90;;;;;;5094346;28;20560;-76
2020/12/24 10:22:11;;;;;;;25.30;23.30;;;5.40;99.90;;;;;;5088224;28;20501;-76
2020/12/24 10:24:40;;;;;;;27.23;24.93;;;5.30;99.90;;;;;;5094790;28;21046;-79
2020/12/24 10:27:06;;;;;;;27.40;25.07;;;5.40;99.90;;;;;;5096476;28;20454;-79
2020/12/24 10:29:34;;;;;;;27.27;24.77;;;5.40;99.90;;;;;;5095325;28;20460;-78
2020/12/24 10:32:00;;;;;;;25.53;23.23;;;5.40;99.90;;;;;;5091236;28;20540;-77
2020/12/24 10:34:26;;;;;;;25.03;22.67;;;5.40;99.90;;;;;;5093497;28;20469;-77
2020/12/24 10:36:55;;;;;;;25.57;23.60;;;5.30;99.90;;;;;;5095880;28;20467;-79
2020/12/24 10:39:21;;;;;;;24.60;22.70;;;5.30;99.90;;;;;;5093002;28;20450;-81
2020/12/24 10:41:49;;;;;;;23.87;21.97;;;5.20;99.90;;;;;;5092469;28;20449;-81
2020/12/24 10:44:15;;;;;;;24.30;22.40;;;5.30;99.90;;;;;;5074196;28;20498;-79
2020/12/24 10:46:43;;;;;;;23.10;21.20;;;5.30;99.90;;;;;;5073722;28;20472;-82
2020/12/24 10:49:11;;;;;;;23.30;21.33;;;5.30;99.90;;;;;;5077232;28;20461;-81
2020/12/24 10:51:38;;;;;;;23.67;21.87;;;5.20;99.90;;;;;;5070664;28;20956;-80
2020/12/24 10:54:07;;;;;;;23.77;21.73;;;5.30;99.90;;;;;;5071263;28;20546;-77
2020/12/24 10:56:33;;;;;;;21.27;19.77;;;5.30;99.90;;;;;;5065259;28;20803;-81
2020/12/24 10:59:00;;;;;;;22.00;20.30;;;5.20;99.90;;;;;;5057858;28;20501;-81
2020/12/24 11:01:26;;;;;;;21.43;19.53;;;5.20;99.90;;;;;;5064942;28;20458;-78
2020/12/24 11:03:52;;;;;;;20.03;18.70;;;5.20;99.90;;;;;;5062984;28;20463;-79
2020/12/24 11:06:20;;;;;;;18.60;17.30;;;5.00;99.90;;;;;;5062066;28;20470;-82
2020/12/24 11:08:47;;;;;;;19.10;17.90;;;5.00;99.90;;;;;;5059746;28;20463;-79
2020/12/24 11:11:15;;;;;;;18.20;16.90;;;4.90;99.90;;;;;;5064318;28;20451;-79
2020/12/24 11:13:42;;;;;;;16.80;15.90;;;4.80;99.90;;;;;;5072611;28;20478;-76
2020/12/24 11:16:11;;;;;;;17.83;16.83;;;4.70;99.90;;;;;;5064751;28;20976;-77
2020/12/24 11:18:39;;;;;;;19.07;17.90;;;4.70;99.90;;;;;;5065182;28;21034;-77
2020/12/24 11:21:06;;;;;;;17.70;16.80;;;4.70;99.90;;;;;;5063254;28;20858;-75
2020/12/24 11:23:32;;;;;;;18.10;17.20;;;4.70;99.90;;;;;;5069651;28;20478;-76
2020/12/24 11:25:58;;;;;;;18.73;17.73;;;4.70;99.90;;;;;;5071729;28;20459;-76
2020/12/24 11:28:25;;;;;;;20.63;19.30;;;4.70;99.90;;;;;;5067613;28;20458;-76
2020/12/24 11:30:52;;;;;;;20.80;19.60;;;4.70;99.90;;;;;;5062699;28;20968;-77
2020/12/24 11:33:18;;;;;;;19.83;18.63;;;4.70;99.90;;;;;;5064333;28;20450;-76
2020/12/24 11:35:45;;;;;;;20.20;19.00;;;4.70;99.90;;;;;;5067850;28;20478;-76
2020/12/24 11:38:13;;;;;;;20.77;19.07;;;4.80;99.90;;;;;;5071542;28;21035;-76
2020/12/24 11:40:40;;;;;;;19.90;18.80;;;4.70;99.90;;;;;;5078901;28;20469;-77
2020/12/24 11:43:06;;;;;;;20.77;19.57;;;4.70;99.90;;;;;;5061435;28;20474;-76
2020/12/24 11:45:33;;;;;;;21.27;19.97;;;4.70;99.90;;;;;;5085412;28;20936;-76
2020/12/24 11:48:00;;;;;;;22.30;20.13;;;4.70;99.90;;;;;;5093463;28;20470;-76
2020/12/24 11:50:26;;;;;;;21.13;19.83;;;4.70;99.90;;;;;;5093058;28;20662;-76
2020/12/24 11:52:53;;;;;;;20.27;18.97;;;4.70;99.90;;;;;;5094379;28;20766;-77
2020/12/24 11:55:19;;;;;;;19.30;18.20;;;4.70;99.90;;;;;;5093795;28;20457;-76
2020/12/24 12:00:55;;;;;;;20.07;18.87;;;4.70;99.90;;;;;;5079818;28;20968;-76
2020/12/24 12:03:21;;;;;;;20.87;19.57;;;4.70;99.90;;;;;;5094190;28;20508;-76
2020/12/24 12:05:48;;;;;;;21.10;19.70;;;4.70;99.90;;;;;;5095401;28;20453;-76
2020/12/24 12:08:17;;;;;;;20.57;19.30;;;4.80;99.90;;;;;;5092862;28;20452;-76
2020/12/24 12:10:43;;;;;;;18.93;17.93;;;4.90;99.90;;;;;;5089116;28;21050;-76
2020/12/24 12:13:09;;;;;;;19.97;18.83;;;4.80;99.90;;;;;;5095748;28;20442;-76
2020/12/24 12:15:36;;;;;;;21.37;19.87;;;4.90;99.90;;;;;;5095521;28;20489;-76
2020/12/24 12:18:06;;;;;;;21.17;19.87;;;4.90;99.90;;;;;;5095626;28;20469;-76
2020/12/24 12:20:32;;;;;;;19.53;18.33;;;4.90;99.90;;;;;;5090221;28;20462;-76
2020/12/24 12:22:58;;;;;;;20.80;19.50;;;4.90;99.90;;;;;;5092237;28;20445;-77
2020/12/24 12:25:26;;;;;;;20.43;19.20;;;5.00;99.90;;;;;;5093904;28;20966;-77
2020/12/24 12:27:52;;;;;;;22.10;20.70;;;5.00;99.90;;;;;;5094169;28;20450;-76
2020/12/24 12:30:19;;;;;;;22.27;20.87;;;5.00;99.90;;;;;;5096645;28;20454;-76
2020/12/24 12:32:45;;;;;;;22.47;21.07;;;4.90;99.90;;;;;;5093772;28;20481;-76
2020/12/24 12:35:12;;;;;;;21.10;19.70;;;5.00;99.90;;;;;;5091744;28;20492;-76
2020/12/24 12:37:39;;;;;;;24.40;22.80;;;5.10;99.90;;;;;;5091720;28;20521;-76
2020/12/24 12:40:07;;;;;;;25.43;23.30;;;5.10;99.90;;;;;;5093752;28;20473;-77
2020/12/24 12:42:35;;;;;;;22.13;20.83;;;5.20;99.90;;;;;;5098671;28;20454;-77